Wentworth, New Hampshire
Current Conditions -  °F | °C
As of 4:35 AM on Thursday 27 Nov 2014 (Local Time) from K1P1 Reporting Station
Overcast Overcast  
Wind Chill: -5°   Ceiling: 7000
Heat Index:   Visibility: 10mi
Dew Point: -1°   Wind: 9mph
Humidity: 96%   Direction: 280°W
Pressure: 29.78"   Gusts: NA
Location:  43.87°N, 71.91°W
Report Text: K1P1 270935Z AUTO 28008KT 10SM BKN070 OVC080 00/M01 A2978 RMK AO2 T10051010
Loading
Personal Weather Stations






























Interactive Weather Map New forecast layout! Learn more

10-Day Weather Forecast

Advertisements
Track Severe Weather on mobile